sensor_id;sensor_type;location;lat;lon;timestamp;temperature;humidity
1307;DHT22;646;48.696;9.114;2023-02-01T01:22:48;3.50;99.90
1307;DHT22;646;48.696;9.114;2023-02-01T01:33:00;3.60;99.90
1307;DHT22;646;48.696;9.114;2023-02-01T02:41:58;3.70;99.90
1307;DHT22;646;48.696;9.114;2023-02-01T02:50:11;3.60;99.90
1307;DHT22;646;48.696;9.114;2023-02-01T02:55:34;3.90;99.90
1307;DHT22;646;48.696;9.114;2023-02-01T03:21:57;4.00;99.90
1307;DHT22;646;48.696;9.114;2023-02-01T03:27:20;3.80;99.90
1307;DHT22;646;48.696;9.114;2023-02-01T03:30:04;3.80;99.90
1307;DHT22;646;48.696;9.114;2023-02-01T03:32:32;4.00;99.90
1307;DHT22;646;48.696;9.114;2023-02-01T03:35:23;3.80;99.90
1307;DHT22;646;48.696;9.114;2023-02-01T03:48:40;3.80;99.90
1307;DHT22;646;48.696;9.114;2023-02-01T03:53:42;3.70;99.90
1307;DHT22;646;48.696;9.114;2023-02-01T04:01:21;3.90;99.90
1307;DHT22;646;48.696;9.114;2023-02-01T04:06:23;3.60;99.90
1307;DHT22;646;48.696;9.114;2023-02-01T04:11:24;3.70;99.90
1307;DHT22;646;48.696;9.114;2023-02-01T04:19:11;4.00;99.90
1307;DHT22;646;48.696;9.114;2023-02-01T04:21:37;3.50;99.90
1307;DHT22;646;48.696;9.114;2023-02-01T04:24:02;3.20;99.90
1307;DHT22;646;48.696;9.114;2023-02-01T04:26:28;4.40;99.90
1307;DHT22;646;48.696;9.114;2023-02-01T04:31:29;3.60;99.90
1307;DHT22;646;48.696;9.114;2023-02-01T04:33:55;4.10;99.90
1307;DHT22;646;48.696;9.114;2023-02-01T04:36:23;3.80;99.90
1307;DHT22;646;48.696;9.114;2023-02-01T04:38:49;4.20;99.90
1307;DHT22;646;48.696;9.114;2023-02-01T04:43:58;3.90;99.90
1307;DHT22;646;48.696;9.114;2023-02-01T04:46:24;4.20;99.90
1307;DHT22;646;48.696;9.114;2023-02-01T04:48:49;4.20;99.90
1307;DHT22;646;48.696;9.114;2023-02-01T04:51:15;3.90;99.90
1307;DHT22;646;48.696;9.114;2023-02-01T04:53:40;4.30;99.90
1307;DHT22;646;48.696;9.114;2023-02-01T04:56:06;3.50;99.90
1307;DHT22;646;48.696;9.114;2023-02-01T04:58:32;3.90;99.90
1307;DHT22;646;48.696;9.114;2023-02-01T05:00:57;3.90;99.90
1307;DHT22;646;48.696;9.114;2023-02-01T05:03:23;3.90;99.90
1307;DHT22;646;48.696;9.114;2023-02-01T05:05:48;3.80;99.90
1307;DHT22;646;48.696;9.114;2023-02-01T05:08:14;4.10;99.90
1307;DHT22;646;48.696;9.114;2023-02-01T05:10:40;4.10;99.90
1307;DHT22;646;48.696;9.114;2023-02-01T05:13:05;4.20;99.90
1307;DHT22;646;48.696;9.114;2023-02-01T05:15:50;3.60;99.90
1307;DHT22;646;48.696;9.114;2023-02-01T05:18:16;3.80;99.90
1307;DHT22;646;48.696;9.114;2023-02-01T05:20:42;3.80;99.90
1307;DHT22;646;48.696;9.114;2023-02-01T05:23:07;3.40;99.90
1307;DHT22;646;48.696;9.114;2023-02-01T05:25:33;3.70;99.90
1307;DHT22;646;48.696;9.114;2023-02-01T05:27:58;3.90;99.90
1307;DHT22;646;48.696;9.114;2023-02-01T05:30:24;3.40;99.90
1307;DHT22;646;48.696;9.114;2023-02-01T05:32:51;4.00;99.90
1307;DHT22;646;48.696;9.114;2023-02-01T05:35:16;3.70;99.90
1307;DHT22;646;48.696;9.114;2023-02-01T05:37:42;3.80;99.90
1307;DHT22;646;48.696;9.114;2023-02-01T05:40:08;4.10;99.90
1307;DHT22;646;48.696;9.114;2023-02-01T05:42:33;4.10;99.90
1307;DHT22;646;48.696;9.114;2023-02-01T05:44:59;4.10;99.90
1307;DHT22;646;48.696;9.114;2023-02-01T05:47:24;3.70;99.90
1307;DHT22;646;48.696;9.114;2023-02-01T05:49:50;3.50;99.90
1307;DHT22;646;48.696;9.114;2023-02-01T05:52:15;3.80;99.90
1307;DHT22;646;48.696;9.114;2023-02-01T05:54:45;4.20;99.90
1307;DHT22;646;48.696;9.114;2023-02-01T05:57:11;3.90;99.90
1307;DHT22;646;48.696;9.114;2023-02-01T05:59:38;3.80;99.90
1307;DHT22;646;48.696;9.114;2023-02-01T06:02:07;4.20;99.90
1307;DHT22;646;48.696;9.114;2023-02-01T06:04:32;4.20;99.90
1307;DHT22;646;48.696;9.114;2023-02-01T06:06:58;3.30;99.90
1307;DHT22;646;48.696;9.114;2023-02-01T06:09:23;4.10;99.90
1307;DHT22;646;48.696;9.114;2023-02-01T06:11:48;3.90;99.90
1307;DHT22;646;48.696;9.114;2023-02-01T06:14:14;4.00;99.90
1307;DHT22;646;48.696;9.114;2023-02-01T06:16:39;3.70;99.90
1307;DHT22;646;48.696;9.114;2023-02-01T06:19:05;3.90;99.90
1307;DHT22;646;48.696;9.114;2023-02-01T06:21:30;4.00;99.90
1307;DHT22;646;48.696;9.114;2023-02-01T06:23:56;3.30;99.90
1307;DHT22;646;48.696;9.114;2023-02-01T06:26:23;3.90;99.90
1307;DHT22;646;48.696;9.114;2023-02-01T06:28:48;3.70;99.90
1307;DHT22;646;48.696;9.114;2023-02-01T06:31:14;3.60;99.90
1307;DHT22;646;48.696;9.114;2023-02-01T06:33:40;3.80;99.90
1307;DHT22;646;48.696;9.114;2023-02-01T06:36:07;3.80;99.90
1307;DHT22;646;48.696;9.114;2023-02-01T06:38:35;3.80;99.90
1307;DHT22;646;48.696;9.114;2023-02-01T06:41:01;3.80;99.90
1307;DHT22;646;48.696;9.114;2023-02-01T06:43:27;3.50;99.90
1307;DHT22;646;48.696;9.114;2023-02-01T06:45:53;3.60;99.90
1307;DHT22;646;48.696;9.114;2023-02-01T06:48:19;3.70;99.90
1307;DHT22;646;48.696;9.114;2023-02-01T06:50:44;3.80;99.90
1307;DHT22;646;48.696;9.114;2023-02-01T06:53:10;3.70;99.90
1307;DHT22;646;48.696;9.114;2023-02-01T06:55:36;3.80;99.90
1307;DHT22;646;48.696;9.114;2023-02-01T06:58:01;3.20;99.90
1307;DHT22;646;48.696;9.114;2023-02-01T07:00:28;3.70;99.90
1307;DHT22;646;48.696;9.114;2023-02-01T07:02:54;3.70;99.90
1307;DHT22;646;48.696;9.114;2023-02-01T07:05:20;3.60;99.90
1307;DHT22;646;48.696;9.114;2023-02-01T07:07:45;3.80;99.90
1307;DHT22;646;48.696;9.114;2023-02-01T07:10:11;3.80;99.90
1307;DHT22;646;48.696;9.114;2023-02-01T07:12:37;3.40;99.90
1307;DHT22;646;48.696;9.114;2023-02-01T07:15:03;3.90;99.90
1307;DHT22;646;48.696;9.114;2023-02-01T07:17:28;4.00;99.90
1307;DHT22;646;48.696;9.114;2023-02-01T07:19:57;3.80;99.90
1307;DHT22;646;48.696;9.114;2023-02-01T07:22:27;4.00;99.90
1307;DHT22;646;48.696;9.114;2023-02-01T07:24:52;4.20;99.90
1307;DHT22;646;48.696;9.114;2023-02-01T07:27:18;4.10;99.90
1307;DHT22;646;48.696;9.114;2023-02-01T07:29:43;4.00;99.90
1307;DHT22;646;48.696;9.114;2023-02-01T07:32:09;3.70;99.90
1307;DHT22;646;48.696;9.114;2023-02-01T07:34:34;4.30;99.90
1307;DHT22;646;48.696;9.114;2023-02-01T07:37:00;4.20;99.90
1307;DHT22;646;48.696;9.114;2023-02-01T07:39:25;4.10;99.90
1307;DHT22;646;48.696;9.114;2023-02-01T07:41:53;4.00;99.90
1307;DHT22;646;48.696;9.114;2023-02-01T07:44:19;3.70;99.90
1307;DHT22;646;48.696;9.114;2023-02-01T07:46:48;3.60;99.90
1307;DHT22;646;48.696;9.114;2023-02-01T07:49:13;4.40;99.90
1307;DHT22;646;48.696;9.114;2023-02-01T07:51:39;4.00;99.90
1307;DHT22;646;48.696;9.114;2023-02-01T07:54:04;4.40;99.90
1307;DHT22;646;48.696;9.114;2023-02-01T07:56:30;3.90;99.90
1307;DHT22;646;48.696;9.114;2023-02-01T07:58:55;4.10;99.90
1307;DHT22;646;48.696;9.114;2023-02-01T08:01:25;4.40;99.90
1307;DHT22;646;48.696;9.114;2023-02-01T08:04:02;4.40;99.90
1307;DHT22;646;48.696;9.114;2023-02-01T08:06:30;4.60;99.90
1307;DHT22;646;48.696;9.114;2023-02-01T08:08:56;4.70;99.90
1307;DHT22;646;48.696;9.114;2023-02-01T08:11:22;3.70;99.90
1307;DHT22;646;48.696;9.114;2023-02-01T08:13:49;4.40;99.90
1307;DHT22;646;48.696;9.114;2023-02-01T08:16:16;4.50;99.90
1307;DHT22;646;48.696;9.114;2023-02-01T08:18:42;4.40;99.90
1307;DHT22;646;48.696;9.114;2023-02-01T08:21:13;4.50;99.90
1307;DHT22;646;48.696;9.114;2023-02-01T08:23:41;4.40;99.90
1307;DHT22;646;48.696;9.114;2023-02-01T08:26:11;4.60;99.90
1307;DHT22;646;48.696;9.114;2023-02-01T08:28:38;4.50;99.90
1307;DHT22;646;48.696;9.114;2023-02-01T08:31:09;4.70;99.90
1307;DHT22;646;48.696;9.114;2023-02-01T08:33:35;4.70;99.90
1307;DHT22;646;48.696;9.114;2023-02-01T08:36:03;4.70;99.90
1307;DHT22;646;48.696;9.114;2023-02-01T08:38:29;4.80;99.90
1307;DHT22;646;48.696;9.114;2023-02-01T08:40:55;4.60;99.90
1307;DHT22;646;48.696;9.114;2023-02-01T08:43:20;4.50;99.90
1307;DHT22;646;48.696;9.114;2023-02-01T08:45:46;4.70;99.90
1307;DHT22;646;48.696;9.114;2023-02-01T08:48:11;4.80;99.90
1307;DHT22;646;48.696;9.114;2023-02-01T08:50:37;5.60;99.90
1307;DHT22;646;48.696;9.114;2023-02-01T08:53:02;5.50;99.90
1307;DHT22;646;48.696;9.114;2023-02-01T08:55:28;5.80;99.90
1307;DHT22;646;48.696;9.114;2023-02-01T08:57:53;6.00;99.90
1307;DHT22;646;48.696;9.114;2023-02-01T09:00:19;5.80;99.90
1307;DHT22;646;48.696;9.114;2023-02-01T09:02:45;6.10;99.90
1307;DHT22;646;48.696;9.114;2023-02-01T09:05:11;6.10;99.90
1307;DHT22;646;48.696;9.114;2023-02-01T09:07:37;6.00;99.90
1307;DHT22;646;48.696;9.114;2023-02-01T09:10:03;5.90;99.90
1307;DHT22;646;48.696;9.114;2023-02-01T09:12:31;6.10;99.90
1307;DHT22;646;48.696;9.114;2023-02-01T09:14:57;5.90;99.90
1307;DHT22;646;48.696;9.114;2023-02-01T09:17:25;6.10;99.90
1307;DHT22;646;48.696;9.114;2023-02-01T09:19:51;5.50;99.90
1307;DHT22;646;48.696;9.114;2023-02-01T09:22:16;5.80;99.90
1307;DHT22;646;48.696;9.114;2023-02-01T09:24:42;5.50;99.90
1307;DHT22;646;48.696;9.114;2023-02-01T09:27:07;5.60;99.90
1307;DHT22;646;48.696;9.114;2023-02-01T09:29:33;5.80;99.90
1307;DHT22;646;48.696;9.114;2023-02-01T09:31:58;5.20;99.90
1307;DHT22;646;48.696;9.114;2023-02-01T09:34:24;5.60;99.90
1307;DHT22;646;48.696;9.114;2023-02-01T09:36:50;5.40;99.90
1307;DHT22;646;48.696;9.114;2023-02-01T09:39:15;5.50;99.90
1307;DHT22;646;48.696;9.114;2023-02-01T09:42:07;4.80;99.90
1307;DHT22;646;48.696;9.114;2023-02-01T09:45:34;5.70;99.90
1307;DHT22;646;48.696;9.114;2023-02-01T09:47:32;5.70;99.90
1307;DHT22;646;48.696;9.114;2023-02-01T09:50:05;5.70;99.90
1307;DHT22;646;48.696;9.114;2023-02-01T09:52:38;5.60;99.90
1307;DHT22;646;48.696;9.114;2023-02-01T09:55:15;6.00;99.90
1307;DHT22;646;48.696;9.114;2023-02-01T09:57:51;5.90;99.90
1307;DHT22;646;48.696;9.114;2023-02-01T10:00:28;5.40;99.90
1307;DHT22;646;48.696;9.114;2023-02-01T10:02:55;6.10;99.90
1307;DHT22;646;48.696;9.114;2023-02-01T10:05:39;6.00;99.90
1307;DHT22;646;48.696;9.114;2023-02-01T10:08:19;6.10;99.90
1307;DHT22;646;48.696;9.114;2023-02-01T10:10:58;6.30;99.90
1307;DHT22;646;48.696;9.114;2023-02-01T10:16:12;6.40;99.90
1307;DHT22;646;48.696;9.114;2023-02-01T10:19:15;6.60;99.90
1307;DHT22;646;48.696;9.114;2023-02-01T10:21:57;6.80;99.90
1307;DHT22;646;48.696;9.114;2023-02-01T10:24:37;7.10;99.90
1307;DHT22;646;48.696;9.114;2023-02-01T10:27:10;7.10;99.90
1307;DHT22;646;48.696;9.114;2023-02-01T10:29:40;7.20;99.90
1307;DHT22;646;48.696;9.114;2023-02-01T10:32:13;7.40;99.90
1307;DHT22;646;48.696;9.114;2023-02-01T10:34:39;6.70;99.90
1307;DHT22;646;48.696;9.114;2023-02-01T10:39:37;7.10;99.90
1307;DHT22;646;48.696;9.114;2023-02-01T10:42:03;7.20;99.90
1307;DHT22;646;48.696;9.114;2023-02-01T10:44:30;7.30;99.90
1307;DHT22;646;48.696;9.114;2023-02-01T10:46:56;6.80;99.90
1307;DHT22;646;48.696;9.114;2023-02-01T10:52:15;7.40;99.90
1307;DHT22;646;48.696;9.114;2023-02-01T10:54:42;7.40;99.40
1307;DHT22;646;48.696;9.114;2023-02-01T10:57:10;7.60;98.40
1307;DHT22;646;48.696;9.114;2023-02-01T10:59:36;7.50;97.60
1307;DHT22;646;48.696;9.114;2023-02-01T11:02:29;7.50;97.10
1307;DHT22;646;48.696;9.114;2023-02-01T11:05:07;7.70;96.10
1307;DHT22;646;48.696;9.114;2023-02-01T11:07:38;7.50;92.90
1307;DHT22;646;48.696;9.114;2023-02-01T11:10:05;7.50;91.90
1307;DHT22;646;48.696;9.114;2023-02-01T11:12:35;7.40;92.30
1307;DHT22;646;48.696;9.114;2023-02-01T11:15:22;7.70;93.40
1307;DHT22;646;48.696;9.114;2023-02-01T11:17:50;7.10;93.10
1307;DHT22;646;48.696;9.114;2023-02-01T11:20:19;7.10;92.00
1307;DHT22;646;48.696;9.114;2023-02-01T11:22:49;7.10;92.20
1307;DHT22;646;48.696;9.114;2023-02-01T11:25:18;7.70;91.80
1307;DHT22;646;48.696;9.114;2023-02-01T11:27:44;7.50;91.20
1307;DHT22;646;48.696;9.114;2023-02-01T11:30:32;7.60;90.60
1307;DHT22;646;48.696;9.114;2023-02-01T11:33:00;7.30;89.80
1307;DHT22;646;48.696;9.114;2023-02-01T11:35:28;7.60;90.60
1307;DHT22;646;48.696;9.114;2023-02-01T11:37:58;7.00;90.00
1307;DHT22;646;48.696;9.114;2023-02-01T11:40:34;7.50;88.40
1307;DHT22;646;48.696;9.114;2023-02-01T11:46:02;7.70;88.70
1307;DHT22;646;48.696;9.114;2023-02-01T11:48:31;7.70;89.10
1307;DHT22;646;48.696;9.114;2023-02-01T11:54:03;7.70;84.70
1307;DHT22;646;48.696;9.114;2023-02-01T11:56:46;6.90;84.80
1307;DHT22;646;48.696;9.114;2023-02-01T12:05:35;7.10;86.70
1307;DHT22;646;48.696;9.114;2023-02-01T12:13:52;7.40;86.70
1307;DHT22;646;48.696;9.114;2023-02-01T12:19:31;7.30;86.30
1307;DHT22;646;48.696;9.114;2023-02-01T12:22:33;7.40;86.50
1307;DHT22;646;48.696;9.114;2023-02-01T12:28:10;6.90;85.10
1307;DHT22;646;48.696;9.114;2023-02-01T12:36:49;6.80;85.30
1307;DHT22;646;48.696;9.114;2023-02-01T12:39:23;6.50;84.40
1307;DHT22;646;48.696;9.114;2023-02-01T12:42:23;6.90;85.60
1307;DHT22;646;48.696;9.114;2023-02-01T12:44:54;6.70;86.80
1307;DHT22;646;48.696;9.114;2023-02-01T12:47:31;6.70;85.10
1307;DHT22;646;48.696;9.114;2023-02-01T12:50:51;6.80;85.50
1307;DHT22;646;48.696;9.114;2023-02-01T12:53:19;6.80;86.50
1307;DHT22;646;48.696;9.114;2023-02-01T12:56:03;6.80;87.10
1307;DHT22;646;48.696;9.114;2023-02-01T13:01:11;6.80;88.40
1307;DHT22;646;48.696;9.114;2023-02-01T13:06:29;6.60;88.00
1307;DHT22;646;48.696;9.114;2023-02-01T13:11:38;6.30;87.70
1307;DHT22;646;48.696;9.114;2023-02-01T13:17:22;6.50;88.70
1307;DHT22;646;48.696;9.114;2023-02-01T13:22:41;6.50;88.90
1307;DHT22;646;48.696;9.114;2023-02-01T13:25:14;6.50;88.80
1307;DHT22;646;48.696;9.114;2023-02-01T13:27:41;6.50;89.50
1307;DHT22;646;48.696;9.114;2023-02-01T13:30:30;6.70;89.40
1307;DHT22;646;48.696;9.114;2023-02-01T13:35:56;6.30;89.30
1307;DHT22;646;48.696;9.114;2023-02-01T13:38:35;6.60;90.30
1307;DHT22;646;48.696;9.114;2023-02-01T13:41:27;6.70;90.30
1307;DHT22;646;48.696;9.114;2023-02-01T13:43:57;6.60;90.40
1307;DHT22;646;48.696;9.114;2023-02-01T13:46:24;6.60;90.00
1307;DHT22;646;48.696;9.114;2023-02-01T13:48:58;6.70;90.00
1307;DHT22;646;48.696;9.114;2023-02-01T13:51:35;6.70;90.30
1307;DHT22;646;48.696;9.114;2023-02-01T13:54:04;6.50;90.60
1307;DHT22;646;48.696;9.114;2023-02-01T13:56:42;6.00;89.90
1307;DHT22;646;48.696;9.114;2023-02-01T13:59:46;6.50;90.80
1307;DHT22;646;48.696;9.114;2023-02-01T14:08:16;6.60;91.20
1307;DHT22;646;48.696;9.114;2023-02-01T14:10:52;6.30;91.00
1307;DHT22;646;48.696;9.114;2023-02-01T14:13:29;6.60;90.90
1307;DHT22;646;48.696;9.114;2023-02-01T14:29:01;6.50;91.50
1307;DHT22;646;48.696;9.114;2023-02-01T14:31:39;6.50;91.50
1307;DHT22;646;48.696;9.114;2023-02-01T14:34:13;6.40;91.40
1307;DHT22;646;48.696;9.114;2023-02-01T14:36:46;6.40;91.30
1307;DHT22;646;48.696;9.114;2023-02-01T14:42:00;6.50;91.00
1307;DHT22;646;48.696;9.114;2023-02-01T14:44:32;6.10;91.20
1307;DHT22;646;48.696;9.114;2023-02-01T14:50:03;6.50;91.50
1307;DHT22;646;48.696;9.114;2023-02-01T14:52:41;6.40;91.60
1307;DHT22;646;48.696;9.114;2023-02-01T14:55:23;6.10;91.70
1307;DHT22;646;48.696;9.114;2023-02-01T14:57:53;6.30;92.00
1307;DHT22;646;48.696;9.114;2023-02-01T15:00:29;6.00;91.70
1307;DHT22;646;48.696;9.114;2023-02-01T15:03:15;6.20;91.80
1307;DHT22;646;48.696;9.114;2023-02-01T15:05:42;6.00;92.00
1307;DHT22;646;48.696;9.114;2023-02-01T15:08:23;5.90;91.60
1307;DHT22;646;48.696;9.114;2023-02-01T15:10:51;6.20;92.00
1307;DHT22;646;48.696;9.114;2023-02-01T15:13:23;6.20;91.90
1307;DHT22;646;48.696;9.114;2023-02-01T15:16:13;6.20;91.50
1307;DHT22;646;48.696;9.114;2023-02-01T15:18:40;6.50;91.70
1307;DHT22;646;48.696;9.114;2023-02-01T15:21:14;5.70;91.20
1307;DHT22;646;48.696;9.114;2023-02-01T15:23:40;6.00;91.60
1307;DHT22;646;48.696;9.114;2023-02-01T15:26:05;6.30;91.30
1307;DHT22;646;48.696;9.114;2023-02-01T15:28:31;6.50;91.50
1307;DHT22;646;48.696;9.114;2023-02-01T15:31:02;6.20;91.60
1307;DHT22;646;48.696;9.114;2023-02-01T15:33:29;6.30;92.00
1307;DHT22;646;48.696;9.114;2023-02-01T15:36:16;6.10;91.60
1307;DHT22;646;48.696;9.114;2023-02-01T15:38:43;6.30;91.80
1307;DHT22;646;48.696;9.114;2023-02-01T15:41:20;6.10;91.50
1307;DHT22;646;48.696;9.114;2023-02-01T15:46:17;6.20;91.40
1307;DHT22;646;48.696;9.114;2023-02-01T15:48:49;6.30;91.70
1307;DHT22;646;48.696;9.114;2023-02-01T15:51:22;6.10;92.30
1307;DHT22;646;48.696;9.114;2023-02-01T15:54:00;6.20;92.60
1307;DHT22;646;48.696;9.114;2023-02-01T15:56:28;6.20;92.60
1307;DHT22;646;48.696;9.114;2023-02-01T15:58:59;6.20;92.50
1307;DHT22;646;48.696;9.114;2023-02-01T16:01:26;6.20;92.60
1307;DHT22;646;48.696;9.114;2023-02-01T16:04:04;6.00;92.70
1307;DHT22;646;48.696;9.114;2023-02-01T16:06:32;6.00;93.00
1307;DHT22;646;48.696;9.114;2023-02-01T16:11:28;5.90;93.40
1307;DHT22;646;48.696;9.114;2023-02-01T16:13:59;5.70;93.30
1307;DHT22;646;48.696;9.114;2023-02-01T16:16:26;5.90;94.10
1307;DHT22;646;48.696;9.114;2023-02-01T16:18:51;6.10;93.60
1307;DHT22;646;48.696;9.114;2023-02-01T16:21:17;5.50;93.60
1307;DHT22;646;48.696;9.114;2023-02-01T16:23:43;5.80;94.20
1307;DHT22;646;48.696;9.114;2023-02-01T16:26:08;5.20;94.00
1307;DHT22;646;48.696;9.114;2023-02-01T16:28:34;5.60;94.40
1307;DHT22;646;48.696;9.114;2023-02-01T16:31:00;5.30;94.30
1307;DHT22;646;48.696;9.114;2023-02-01T16:33:26;5.00;94.60
1307;DHT22;646;48.696;9.114;2023-02-01T16:35:52;5.60;94.60
1307;DHT22;646;48.696;9.114;2023-02-01T16:38:21;5.30;94.80
1307;DHT22;646;48.696;9.114;2023-02-01T16:40:48;5.30;94.90
1307;DHT22;646;48.696;9.114;2023-02-01T16:43:19;5.30;95.10
1307;DHT22;646;48.696;9.114;2023-02-01T16:45:46;5.30;95.70
1307;DHT22;646;48.696;9.114;2023-02-01T16:50:46;5.60;95.50
1307;DHT22;646;48.696;9.114;2023-02-01T16:53:14;5.50;95.80
1307;DHT22;646;48.696;9.114;2023-02-01T16:55:41;5.60;95.80
1307;DHT22;646;48.696;9.114;2023-02-01T16:58:09;5.40;95.40
1307;DHT22;646;48.696;9.114;2023-02-01T17:00:35;5.50;95.90
1307;DHT22;646;48.696;9.114;2023-02-01T17:03:03;5.70;96.10
1307;DHT22;646;48.696;9.114;2023-02-01T17:05:29;5.70;95.60
1307;DHT22;646;48.696;9.114;2023-02-01T17:07:56;5.70;95.70
1307;DHT22;646;48.696;9.114;2023-02-01T17:10:25;5.00;95.20
1307;DHT22;646;48.696;9.114;2023-02-01T17:12:51;5.70;95.50
1307;DHT22;646;48.696;9.114;2023-02-01T17:15:17;5.70;95.20
1307;DHT22;646;48.696;9.114;2023-02-01T17:17:42;5.50;95.00
1307;DHT22;646;48.696;9.114;2023-02-01T17:20:20;5.60;95.00
1307;DHT22;646;48.696;9.114;2023-02-01T17:22:46;5.50;95.20
1307;DHT22;646;48.696;9.114;2023-02-01T17:25:17;5.50;94.90
1307;DHT22;646;48.696;9.114;2023-02-01T17:27:43;5.20;95.30
1307;DHT22;646;48.696;9.114;2023-02-01T17:30:11;5.40;95.40
1307;DHT22;646;48.696;9.114;2023-02-01T17:32:36;5.40;95.40
1307;DHT22;646;48.696;9.114;2023-02-01T17:35:04;5.40;95.50
1307;DHT22;646;48.696;9.114;2023-02-01T17:37:32;5.60;95.60
1307;DHT22;646;48.696;9.114;2023-02-01T17:39:58;5.50;96.10
1307;DHT22;646;48.696;9.114;2023-02-01T17:42:25;5.30;95.80
1307;DHT22;646;48.696;9.114;2023-02-01T17:44:56;4.90;95.50
1307;DHT22;646;48.696;9.114;2023-02-01T17:47:22;5.30;95.70
1307;DHT22;646;48.696;9.114;2023-02-01T17:49:49;5.40;95.60
1307;DHT22;646;48.696;9.114;2023-02-01T17:52:22;5.60;96.30
1307;DHT22;646;48.696;9.114;2023-02-01T17:54:48;5.40;96.30
1307;DHT22;646;48.696;9.114;2023-02-01T17:57:15;5.60;96.10
1307;DHT22;646;48.696;9.114;2023-02-01T17:59:41;5.50;96.50
1307;DHT22;646;48.696;9.114;2023-02-01T18:02:23;5.50;96.40
1307;DHT22;646;48.696;9.114;2023-02-01T18:04:50;5.20;96.20
1307;DHT22;646;48.696;9.114;2023-02-01T18:07:16;5.20;96.30
1307;DHT22;646;48.696;9.114;2023-02-01T18:09:42;5.20;96.60
1307;DHT22;646;48.696;9.114;2023-02-01T18:12:33;5.20;96.70
1307;DHT22;646;48.696;9.114;2023-02-01T18:14:59;4.80;97.20
1307;DHT22;646;48.696;9.114;2023-02-01T18:17:25;5.00;97.60
1307;DHT22;646;48.696;9.114;2023-02-01T18:19:50;5.00;97.70
1307;DHT22;646;48.696;9.114;2023-02-01T18:22:18;5.00;97.80
1307;DHT22;646;48.696;9.114;2023-02-01T18:24:44;5.20;98.10
1307;DHT22;646;48.696;9.114;2023-02-01T18:27:10;5.20;98.20
1307;DHT22;646;48.696;9.114;2023-02-01T18:29:35;5.30;98.20
1307;DHT22;646;48.696;9.114;2023-02-01T18:32:01;5.00;98.00
1307;DHT22;646;48.696;9.114;2023-02-01T18:34:27;5.40;98.00
1307;DHT22;646;48.696;9.114;2023-02-01T18:36:53;5.40;98.20
1307;DHT22;646;48.696;9.114;2023-02-01T18:39:18;5.20;97.70
1307;DHT22;646;48.696;9.114;2023-02-01T18:41:45;5.30;97.90
1307;DHT22;646;48.696;9.114;2023-02-01T18:44:14;5.30;98.00
1307;DHT22;646;48.696;9.114;2023-02-01T18:46:40;5.30;98.30
1307;DHT22;646;48.696;9.114;2023-02-01T18:49:06;5.50;97.90
1307;DHT22;646;48.696;9.114;2023-02-01T18:51:31;5.30;97.90
1307;DHT22;646;48.696;9.114;2023-02-01T18:53:56;5.00;97.70
1307;DHT22;646;48.696;9.114;2023-02-01T18:56:22;5.30;97.80
1307;DHT22;646;48.696;9.114;2023-02-01T18:58:48;5.30;97.70
1307;DHT22;646;48.696;9.114;2023-02-01T19:01:17;5.50;97.40
1307;DHT22;646;48.696;9.114;2023-02-01T19:03:43;5.60;98.00
1307;DHT22;646;48.696;9.114;2023-02-01T19:06:09;5.50;97.50
1307;DHT22;646;48.696;9.114;2023-02-01T19:08:34;5.40;97.40
1307;DHT22;646;48.696;9.114;2023-02-01T19:11:04;5.70;97.50
1307;DHT22;646;48.696;9.114;2023-02-01T19:13:29;5.50;97.50
1307;DHT22;646;48.696;9.114;2023-02-01T19:15:56;5.50;96.90
1307;DHT22;646;48.696;9.114;2023-02-01T19:18:22;5.70;96.80
1307;DHT22;646;48.696;9.114;2023-02-01T19:20:48;5.20;96.10
1307;DHT22;646;48.696;9.114;2023-02-01T19:23:16;5.40;96.20
1307;DHT22;646;48.696;9.114;2023-02-01T19:25:44;5.70;96.30
1307;DHT22;646;48.696;9.114;2023-02-01T19:28:09;5.60;95.90
1307;DHT22;646;48.696;9.114;2023-02-01T19:30:35;5.60;95.90
1307;DHT22;646;48.696;9.114;2023-02-01T19:33:01;5.10;95.50
1307;DHT22;646;48.696;9.114;2023-02-01T19:35:28;5.80;95.60
1307;DHT22;646;48.696;9.114;2023-02-01T19:37:54;5.60;95.80
1307;DHT22;646;48.696;9.114;2023-02-01T19:40:20;5.70;95.40
1307;DHT22;646;48.696;9.114;2023-02-01T19:42:46;5.70;95.60
1307;DHT22;646;48.696;9.114;2023-02-01T19:45:13;5.30;95.50
1307;DHT22;646;48.696;9.114;2023-02-01T19:47:39;5.60;95.80
1307;DHT22;646;48.696;9.114;2023-02-01T19:50:05;5.60;95.80
1307;DHT22;646;48.696;9.114;2023-02-01T19:52:32;5.50;96.10
1307;DHT22;646;48.696;9.114;2023-02-01T19:54:58;5.50;96.40
1307;DHT22;646;48.696;9.114;2023-02-01T19:57:25;5.20;96.20
1307;DHT22;646;48.696;9.114;2023-02-01T19:59:51;4.90;96.40
1307;DHT22;646;48.696;9.114;2023-02-01T20:02:16;5.50;96.50
1307;DHT22;646;48.696;9.114;2023-02-01T20:04:42;5.40;96.80
1307;DHT22;646;48.696;9.114;2023-02-01T20:07:07;5.40;96.80
1307;DHT22;646;48.696;9.114;2023-02-01T20:09:37;5.50;97.00
1307;DHT22;646;48.696;9.114;2023-02-01T20:12:03;5.30;97.40
1307;DHT22;646;48.696;9.114;2023-02-01T20:14:29;5.60;97.30
1307;DHT22;646;48.696;9.114;2023-02-01T20:16:55;5.50;97.30
1307;DHT22;646;48.696;9.114;2023-02-01T20:19:21;5.40;97.00
1307;DHT22;646;48.696;9.114;2023-02-01T20:21:48;5.40;97.30
1307;DHT22;646;48.696;9.114;2023-02-01T20:24:17;5.70;97.60
1307;DHT22;646;48.696;9.114;2023-02-01T20:26:43;5.60;97.20
1307;DHT22;646;48.696;9.114;2023-02-01T20:29:08;5.80;97.60
1307;DHT22;646;48.696;9.114;2023-02-01T20:31:34;5.50;97.30
1307;DHT22;646;48.696;9.114;2023-02-01T20:34:01;5.10;96.80
1307;DHT22;646;48.696;9.114;2023-02-01T20:36:28;5.80;97.10
1307;DHT22;646;48.696;9.114;2023-02-01T20:38:55;5.70;97.40
1307;DHT22;646;48.696;9.114;2023-02-01T20:41:22;5.60;97.20
1307;DHT22;646;48.696;9.114;2023-02-01T20:43:48;5.60;97.10
1307;DHT22;646;48.696;9.114;2023-02-01T20:46:14;5.90;97.30
1307;DHT22;646;48.696;9.114;2023-02-01T20:48:44;5.80;96.70
1307;DHT22;646;48.696;9.114;2023-02-01T20:51:10;5.50;97.00
1307;DHT22;646;48.696;9.114;2023-02-01T20:53:37;5.60;96.60
1307;DHT22;646;48.696;9.114;2023-02-01T20:56:03;5.80;97.10
1307;DHT22;646;48.696;9.114;2023-02-01T20:58:29;5.80;96.90
1307;DHT22;646;48.696;9.114;2023-02-01T21:00:54;5.10;96.50
1307;DHT22;646;48.696;9.114;2023-02-01T21:03:20;5.20;96.60
1307;DHT22;646;48.696;9.114;2023-02-01T21:05:52;6.00;97.00
1307;DHT22;646;48.696;9.114;2023-02-01T21:08:18;5.70;97.10
1307;DHT22;646;48.696;9.114;2023-02-01T21:11:00;5.90;97.20
1307;DHT22;646;48.696;9.114;2023-02-01T21:13:27;6.10;97.50
1307;DHT22;646;48.696;9.114;2023-02-01T21:15:55;5.80;96.80
1307;DHT22;646;48.696;9.114;2023-02-01T21:18:20;5.70;97.20
1307;DHT22;646;48.696;9.114;2023-02-01T21:20:47;6.00;97.50
1307;DHT22;646;48.696;9.114;2023-02-01T21:23:13;5.90;97.10
1307;DHT22;646;48.696;9.114;2023-02-01T21:25:40;5.80;97.00
1307;DHT22;646;48.696;9.114;2023-02-01T21:28:06;5.40;96.80
1307;DHT22;646;48.696;9.114;2023-02-01T21:30:31;5.90;97.10
1307;DHT22;646;48.696;9.114;2023-02-01T21:32:57;5.70;97.10
1307;DHT22;646;48.696;9.114;2023-02-01T21:35:23;5.60;97.40
1307;DHT22;646;48.696;9.114;2023-02-01T21:37:49;5.60;97.30
1307;DHT22;646;48.696;9.114;2023-02-01T21:40:15;5.90;97.40
1307;DHT22;646;48.696;9.114;2023-02-01T21:42:40;5.70;97.50
1307;DHT22;646;48.696;9.114;2023-02-01T21:45:12;5.70;97.70
1307;DHT22;646;48.696;9.114;2023-02-01T21:47:37;5.70;97.60
1307;DHT22;646;48.696;9.114;2023-02-01T21:50:16;6.00;98.00
1307;DHT22;646;48.696;9.114;2023-02-01T21:52:43;5.80;97.80
1307;DHT22;646;48.696;9.114;2023-02-01T21:55:09;5.70;97.90
1307;DHT22;646;48.696;9.114;2023-02-01T21:57:35;5.70;98.10
1307;DHT22;646;48.696;9.114;2023-02-01T22:00:00;5.90;97.80